sensor_id;sensor_type;location;lat;lon;timestamp;P1;durP1;ratioP1;P2;durP2;ratioP2
32106;SDS011;18622;51.998;10.440;2023-06-22T03:33:30;15.70;;;8.70;;
32106;SDS011;18622;51.998;10.440;2023-06-22T03:35:58;13.10;;;8.17;;
32106;SDS011;18622;51.998;10.440;2023-06-22T03:38:26;10.43;;;8.83;;
32106;SDS011;18622;51.998;10.440;2023-06-22T03:40:53;11.60;;;9.23;;
32106;SDS011;18622;51.998;10.440;2023-06-22T03:43:22;11.33;;;9.00;;
32106;SDS011;18622;51.998;10.440;2023-06-22T03:45:50;12.25;;;8.08;;
32106;SDS011;18622;51.998;10.440;2023-06-22T03:48:17;13.90;;;8.47;;
32106;SDS011;18622;51.998;10.440;2023-06-22T03:50:45;10.70;;;8.80;;
32106;SDS011;18622;51.998;10.440;2023-06-22T03:53:13;11.90;;;8.53;;
32106;SDS011;18622;51.998;10.440;2023-06-22T03:55:47;15.10;;;8.60;;
32106;SDS011;18622;51.998;10.440;2023-06-22T03:58:17;13.27;;;8.77;;
32106;SDS011;18622;51.998;10.440;2023-06-22T04:00:46;13.95;;;7.58;;
32106;SDS011;18622;51.998;10.440;2023-06-22T04:03:15;15.35;;;8.25;;
32106;SDS011;18622;51.998;10.440;2023-06-22T04:05:44;14.23;;;7.90;;
32106;SDS011;18622;51.998;10.440;2023-06-22T04:08:13;10.37;;;8.20;;
32106;SDS011;18622;51.998;10.440;2023-06-22T04:10:40;10.72;;;8.65;;
32106;SDS011;18622;51.998;10.440;2023-06-22T04:13:08;16.13;;;8.43;;
32106;SDS011;18622;51.998;10.440;2023-06-22T04:15:36;11.60;;;8.13;;
32106;SDS011;18622;51.998;10.440;2023-06-22T04:18:04;11.30;;;8.40;;
32106;SDS011;18622;51.998;10.440;2023-06-22T04:20:32;10.13;;;8.43;;
32106;SDS011;18622;51.998;10.440;2023-06-22T04:22:59;11.27;;;8.93;;
32106;SDS011;18622;51.998;10.440;2023-06-22T04:25:27;13.60;;;8.50;;
32106;SDS011;18622;51.998;10.440;2023-06-22T04:27:55;12.83;;;8.70;;
32106;SDS011;18622;51.998;10.440;2023-06-22T04:30:23;12.60;;;8.87;;
32106;SDS011;18622;51.998;10.440;2023-06-22T04:32:51;14.37;;;8.50;;
32106;SDS011;18622;51.998;10.440;2023-06-22T04:35:25;12.70;;;10.40;;
32106;SDS011;18622;51.998;10.440;2023-06-22T04:37:55;14.05;;;9.88;;
32106;SDS011;18622;51.998;10.440;2023-06-22T04:40:24;12.65;;;9.95;;
32106;SDS011;18622;51.998;10.440;2023-06-22T04:42:53;16.93;;;9.43;;
32106;SDS011;18622;51.998;10.440;2023-06-22T04:45:20;13.75;;;9.73;;
32106;SDS011;18622;51.998;10.440;2023-06-22T04:47:48;12.37;;;9.50;;
32106;SDS011;18622;51.998;10.440;2023-06-22T04:50:16;13.00;;;9.43;;
32106;SDS011;18622;51.998;10.440;2023-06-22T04:52:46;17.27;;;9.28;;
32106;SDS011;18622;51.998;10.440;2023-06-22T04:55:14;13.07;;;9.43;;
32106;SDS011;18622;51.998;10.440;2023-06-22T04:57:45;15.27;;;8.60;;
32106;SDS011;18622;51.998;10.440;2023-06-22T05:00:20;12.70;;;10.17;;
32106;SDS011;18622;51.998;10.440;2023-06-22T05:02:49;12.57;;;9.47;;
32106;SDS011;18622;51.998;10.440;2023-06-22T05:05:16;12.03;;;8.83;;
32106;SDS011;18622;51.998;10.440;2023-06-22T05:07:45;15.40;;;9.80;;
32106;SDS011;18622;51.998;10.440;2023-06-22T05:10:18;12.70;;;9.60;;
32106;SDS011;18622;51.998;10.440;2023-06-22T05:12:46;14.78;;;9.13;;
32106;SDS011;18622;51.998;10.440;2023-06-22T05:15:14;13.33;;;10.23;;
32106;SDS011;18622;51.998;10.440;2023-06-22T05:17:41;13.47;;;9.83;;
32106;SDS011;18622;51.998;10.440;2023-06-22T05:20:11;13.03;;;10.05;;
32106;SDS011;18622;51.998;10.440;2023-06-22T05:22:39;16.93;;;9.60;;
32106;SDS011;18622;51.998;10.440;2023-06-22T05:25:09;14.28;;;9.55;;
32106;SDS011;18622;51.998;10.440;2023-06-22T05:27:38;11.73;;;8.33;;
32106;SDS011;18622;51.998;10.440;2023-06-22T05:30:06;17.20;;;9.10;;
32106;SDS011;18622;51.998;10.440;2023-06-22T05:32:35;10.82;;;9.43;;
32106;SDS011;18622;51.998;10.440;2023-06-22T05:35:03;17.30;;;10.30;;
32106;SDS011;18622;51.998;10.440;2023-06-22T05:37:31;12.98;;;10.35;;
32106;SDS011;18622;51.998;10.440;2023-06-22T05:39:59;11.37;;;9.37;;
32106;SDS011;18622;51.998;10.440;2023-06-22T05:42:28;10.40;;;9.13;;
32106;SDS011;18622;51.998;10.440;2023-06-22T05:44:55;19.00;;;10.07;;
32106;SDS011;18622;51.998;10.440;2023-06-22T05:47:25;11.88;;;9.53;;
32106;SDS011;18622;51.998;10.440;2023-06-22T05:49:52;23.63;;;10.77;;
32106;SDS011;18622;51.998;10.440;2023-06-22T05:52:20;13.93;;;10.13;;
32106;SDS011;18622;51.998;10.440;2023-06-22T05:54:48;12.30;;;10.17;;
32106;SDS011;18622;51.998;10.440;2023-06-22T05:57:16;15.43;;;10.40;;
32106;SDS011;18622;51.998;10.440;2023-06-22T05:59:44;17.43;;;9.97;;
32106;SDS011;18622;51.998;10.440;2023-06-22T06:02:11;18.17;;;11.10;;
32106;SDS011;18622;51.998;10.440;2023-06-22T06:04:39;14.07;;;9.50;;
32106;SDS011;18622;51.998;10.440;2023-06-22T06:07:07;15.43;;;9.93;;
32106;SDS011;18622;51.998;10.440;2023-06-22T06:09:35;14.13;;;9.03;;
32106;SDS011;18622;51.998;10.440;2023-06-22T06:14:36;13.07;;;10.63;;
32106;SDS011;18622;51.998;10.440;2023-06-22T06:17:04;17.00;;;10.97;;
32106;SDS011;18622;51.998;10.440;2023-06-22T06:19:32;16.00;;;10.90;;
32106;SDS011;18622;51.998;10.440;2023-06-22T06:22:00;21.30;;;11.93;;
32106;SDS011;18622;51.998;10.440;2023-06-22T06:24:27;16.03;;;11.53;;
32106;SDS011;18622;51.998;10.440;2023-06-22T06:26:55;22.50;;;11.60;;
32106;SDS011;18622;51.998;10.440;2023-06-22T06:29:23;13.17;;;10.20;;
32106;SDS011;18622;51.998;10.440;2023-06-22T06:31:51;18.30;;;10.93;;
32106;SDS011;18622;51.998;10.440;2023-06-22T06:34:19;17.27;;;10.27;;
32106;SDS011;18622;51.998;10.440;2023-06-22T06:36:47;16.67;;;9.90;;
32106;SDS011;18622;51.998;10.440;2023-06-22T06:39:15;17.33;;;11.20;;
32106;SDS011;18622;51.998;10.440;2023-06-22T06:41:42;21.57;;;11.13;;
32106;SDS011;18622;51.998;10.440;2023-06-22T06:44:10;17.23;;;11.07;;
32106;SDS011;18622;51.998;10.440;2023-06-22T06:46:38;20.03;;;9.97;;
32106;SDS011;18622;51.998;10.440;2023-06-22T06:49:07;23.47;;;11.12;;
32106;SDS011;18622;51.998;10.440;2023-06-22T06:51:35;23.53;;;10.83;;
32106;SDS011;18622;51.998;10.440;2023-06-22T06:54:03;21.13;;;11.10;;
32106;SDS011;18622;51.998;10.440;2023-06-22T06:56:31;20.37;;;10.90;;
32106;SDS011;18622;51.998;10.440;2023-06-22T06:58:59;21.03;;;11.17;;
32106;SDS011;18622;51.998;10.440;2023-06-22T07:01:27;23.20;;;10.83;;
32106;SDS011;18622;51.998;10.440;2023-06-22T07:03:56;17.15;;;10.70;;
32106;SDS011;18622;51.998;10.440;2023-06-22T07:06:24;17.03;;;11.20;;
32106;SDS011;18622;51.998;10.440;2023-06-22T07:08:54;20.15;;;11.25;;
32106;SDS011;18622;51.998;10.440;2023-06-22T07:11:22;18.37;;;11.15;;
32106;SDS011;18622;51.998;10.440;2023-06-22T07:13:50;22.17;;;12.37;;
32106;SDS011;18622;51.998;10.440;2023-06-22T07:16:17;19.83;;;11.17;;
32106;SDS011;18622;51.998;10.440;2023-06-22T07:18:45;17.07;;;11.37;;
32106;SDS011;18622;51.998;10.440;2023-06-22T07:21:13;15.07;;;11.20;;
32106;SDS011;18622;51.998;10.440;2023-06-22T07:23:41;18.87;;;11.10;;
32106;SDS011;18622;51.998;10.440;2023-06-22T07:26:09;20.43;;;11.67;;
32106;SDS011;18622;51.998;10.440;2023-06-22T07:31:06;17.10;;;11.20;;
32106;SDS011;18622;51.998;10.440;2023-06-22T07:33:34;15.87;;;10.53;;
32106;SDS011;18622;51.998;10.440;2023-06-22T07:36:02;17.70;;;10.43;;
32106;SDS011;18622;51.998;10.440;2023-06-22T07:38:31;15.03;;;10.53;;
32106;SDS011;18622;51.998;10.440;2023-06-22T07:40:59;12.53;;;10.70;;
32106;SDS011;18622;51.998;10.440;2023-06-22T07:43:29;16.87;;;10.97;;
32106;SDS011;18622;51.998;10.440;2023-06-22T07:45:59;17.50;;;11.43;;
32106;SDS011;18622;51.998;10.440;2023-06-22T07:48:27;17.03;;;10.43;;
32106;SDS011;18622;51.998;10.440;2023-06-22T07:50:54;14.93;;;10.50;;
32106;SDS011;18622;51.998;10.440;2023-06-22T07:53:23;13.27;;;10.57;;
32106;SDS011;18622;51.998;10.440;2023-06-22T07:55:51;16.27;;;10.00;;
32106;SDS011;18622;51.998;10.440;2023-06-22T07:58:18;13.00;;;11.67;;
32106;SDS011;18622;51.998;10.440;2023-06-22T08:00:46;15.83;;;10.90;;
32106;SDS011;18622;51.998;10.440;2023-06-22T08:03:15;19.73;;;11.10;;
32106;SDS011;18622;51.998;10.440;2023-06-22T08:05:43;13.20;;;11.70;;
32106;SDS011;18622;51.998;10.440;2023-06-22T08:08:11;15.80;;;12.17;;
32106;SDS011;18622;51.998;10.440;2023-06-22T08:10:40;16.57;;;12.20;;
32106;SDS011;18622;51.998;10.440;2023-06-22T08:13:08;19.20;;;13.07;;
32106;SDS011;18622;51.998;10.440;2023-06-22T08:15:36;19.03;;;12.33;;
32106;SDS011;18622;51.998;10.440;2023-06-22T08:18:04;16.00;;;12.00;;
32106;SDS011;18622;51.998;10.440;2023-06-22T08:20:32;16.43;;;11.77;;
32106;SDS011;18622;51.998;10.440;2023-06-22T08:23:00;15.83;;;12.67;;
32106;SDS011;18622;51.998;10.440;2023-06-22T08:27:56;15.40;;;11.57;;
32106;SDS011;18622;51.998;10.440;2023-06-22T08:30:24;16.37;;;13.47;;
32106;SDS011;18622;51.998;10.440;2023-06-22T08:32:52;15.67;;;12.50;;
32106;SDS011;18622;51.998;10.440;2023-06-22T08:35:26;14.43;;;12.03;;
32106;SDS011;18622;51.998;10.440;2023-06-22T08:37:50;18.73;;;13.67;;
32106;SDS011;18622;51.998;10.440;2023-06-22T08:40:20;13.40;;;12.20;;
32106;SDS011;18622;51.998;10.440;2023-06-22T08:42:48;18.27;;;12.23;;
32106;SDS011;18622;51.998;10.440;2023-06-22T08:45:16;14.97;;;11.70;;
32106;SDS011;18622;51.998;10.440;2023-06-22T08:47:44;14.30;;;12.83;;
32106;SDS011;18622;51.998;10.440;2023-06-22T08:50:12;16.77;;;12.60;;
32106;SDS011;18622;51.998;10.440;2023-06-22T08:52:40;14.40;;;11.80;;
32106;SDS011;18622;51.998;10.440;2023-06-22T08:55:08;19.53;;;12.17;;
32106;SDS011;18622;51.998;10.440;2023-06-22T08:57:37;15.08;;;13.48;;
32106;SDS011;18622;51.998;10.440;2023-06-22T09:00:06;13.60;;;12.20;;
32106;SDS011;18622;51.998;10.440;2023-06-22T09:02:39;19.13;;;13.73;;
32106;SDS011;18622;51.998;10.440;2023-06-22T09:05:07;18.60;;;13.37;;
32106;SDS011;18622;51.998;10.440;2023-06-22T09:07:35;16.83;;;14.90;;
32106;SDS011;18622;51.998;10.440;2023-06-22T09:10:03;15.73;;;13.80;;
32106;SDS011;18622;51.998;10.440;2023-06-22T09:12:31;17.52;;;12.28;;
32106;SDS011;18622;51.998;10.440;2023-06-22T09:15:00;15.13;;;12.03;;
32106;SDS011;18622;51.998;10.440;2023-06-22T09:17:29;15.58;;;13.28;;
32106;SDS011;18622;51.998;10.440;2023-06-22T09:19:56;14.67;;;13.17;;
32106;SDS011;18622;51.998;10.440;2023-06-22T09:22:24;18.17;;;13.47;;
32106;SDS011;18622;51.998;10.440;2023-06-22T09:24:54;16.73;;;14.90;;
32106;SDS011;18622;51.998;10.440;2023-06-22T09:27:22;16.53;;;14.90;;
32106;SDS011;18622;51.998;10.440;2023-06-22T09:29:50;15.87;;;13.70;;
32106;SDS011;18622;51.998;10.440;2023-06-22T09:32:17;18.33;;;13.77;;
32106;SDS011;18622;51.998;10.440;2023-06-22T09:34:45;15.70;;;14.20;;
32106;SDS011;18622;51.998;10.440;2023-06-22T09:37:13;19.43;;;13.17;;
32106;SDS011;18622;51.998;10.440;2023-06-22T09:39:41;14.63;;;13.13;;
32106;SDS011;18622;51.998;10.440;2023-06-22T09:42:09;13.77;;;12.33;;
32106;SDS011;18622;51.998;10.440;2023-06-22T09:44:37;14.33;;;13.05;;
32106;SDS011;18622;51.998;10.440;2023-06-22T09:47:05;14.25;;;13.03;;
32106;SDS011;18622;51.998;10.440;2023-06-22T09:49:33;15.43;;;14.03;;
32106;SDS011;18622;51.998;10.440;2023-06-22T09:52:01;14.57;;;13.03;;
32106;SDS011;18622;51.998;10.440;2023-06-22T09:54:29;17.43;;;15.63;;
32106;SDS011;18622;51.998;10.440;2023-06-22T09:56:57;17.50;;;13.50;;
32106;SDS011;18622;51.998;10.440;2023-06-22T09:59:24;13.43;;;12.27;;
32106;SDS011;18622;51.998;10.440;2023-06-22T10:01:52;14.77;;;13.47;;
32106;SDS011;18622;51.998;10.440;2023-06-22T10:04:20;14.73;;;13.30;;
32106;SDS011;18622;51.998;10.440;2023-06-22T10:06:48;12.37;;;11.23;;
32106;SDS011;18622;51.998;10.440;2023-06-22T10:09:16;13.93;;;12.47;;
32106;SDS011;18622;51.998;10.440;2023-06-22T10:11:44;12.73;;;11.47;;
32106;SDS011;18622;51.998;10.440;2023-06-22T10:14:11;13.17;;;11.80;;
32106;SDS011;18622;51.998;10.440;2023-06-22T10:16:40;15.45;;;12.28;;
32106;SDS011;18622;51.998;10.440;2023-06-22T10:19:08;11.97;;;10.57;;
32106;SDS011;18622;51.998;10.440;2023-06-22T10:21:35;12.45;;;11.15;;
32106;SDS011;18622;51.998;10.440;2023-06-22T10:24:03;11.53;;;10.63;;
32106;SDS011;18622;51.998;10.440;2023-06-22T10:26:35;12.10;;;11.03;;
32106;SDS011;18622;51.998;10.440;2023-06-22T10:29:03;13.45;;;11.97;;
32106;SDS011;18622;51.998;10.440;2023-06-22T10:31:31;12.87;;;10.30;;
32106;SDS011;18622;51.998;10.440;2023-06-22T10:33:59;11.73;;;10.37;;
32106;SDS011;18622;51.998;10.440;2023-06-22T10:36:26;12.28;;;10.98;;
32106;SDS011;18622;51.998;10.440;2023-06-22T10:38:54;12.10;;;10.90;;
32106;SDS011;18622;51.998;10.440;2023-06-22T10:41:26;13.33;;;10.40;;
32106;SDS011;18622;51.998;10.440;2023-06-22T10:43:56;12.93;;;11.73;;
32106;SDS011;18622;51.998;10.440;2023-06-22T10:46:24;11.97;;;10.80;;
32106;SDS011;18622;51.998;10.440;2023-06-22T10:48:53;13.53;;;11.07;;
32106;SDS011;18622;51.998;10.440;2023-06-22T10:51:23;11.33;;;10.13;;
32106;SDS011;18622;51.998;10.440;2023-06-22T10:53:51;10.20;;;9.30;;
32106;SDS011;18622;51.998;10.440;2023-06-22T10:56:19;9.65;;;8.75;;
32106;SDS011;18622;51.998;10.440;2023-06-22T10:58:47;10.30;;;9.30;;
32106;SDS011;18622;51.998;10.440;2023-06-22T11:01:15;11.90;;;9.40;;
32106;SDS011;18622;51.998;10.440;2023-06-22T11:03:43;14.03;;;11.08;;
32106;SDS011;18622;51.998;10.440;2023-06-22T11:06:11;13.03;;;11.22;;
32106;SDS011;18622;51.998;10.440;2023-06-22T11:08:40;12.58;;;10.13;;
32106;SDS011;18622;51.998;10.440;2023-06-22T11:11:11;12.25;;;9.65;;
32106;SDS011;18622;51.998;10.440;2023-06-22T11:13:38;11.20;;;10.03;;
32106;SDS011;18622;51.998;10.440;2023-06-22T11:16:06;12.87;;;10.07;;
32106;SDS011;18622;51.998;10.440;2023-06-22T11:18:34;10.25;;;9.15;;
32106;SDS011;18622;51.998;10.440;2023-06-22T11:21:01;11.28;;;9.78;;
32106;SDS011;18622;51.998;10.440;2023-06-22T11:23:29;9.98;;;9.08;;
32106;SDS011;18622;51.998;10.440;2023-06-22T11:25:56;9.83;;;8.93;;
32106;SDS011;18622;51.998;10.440;2023-06-22T11:28:24;10.13;;;9.17;;
32106;SDS011;18622;51.998;10.440;2023-06-22T11:30:52;11.20;;;10.17;;
32106;SDS011;18622;51.998;10.440;2023-06-22T11:33:20;12.53;;;11.37;;
32106;SDS011;18622;51.998;10.440;2023-06-22T11:35:47;11.07;;;10.00;;
32106;SDS011;18622;51.998;10.440;2023-06-22T11:38:15;12.07;;;10.90;;
32106;SDS011;18622;51.998;10.440;2023-06-22T11:40:43;11.33;;;10.32;;
32106;SDS011;18622;51.998;10.440;2023-06-22T11:43:11;10.97;;;9.87;;
32106;SDS011;18622;51.998;10.440;2023-06-22T11:45:40;11.97;;;10.32;;
32106;SDS011;18622;51.998;10.440;2023-06-22T11:48:08;11.77;;;10.57;;
32106;SDS011;18622;51.998;10.440;2023-06-22T11:50:36;11.37;;;10.23;;
32106;SDS011;18622;51.998;10.440;2023-06-22T11:53:03;11.60;;;9.90;;
32106;SDS011;18622;51.998;10.440;2023-06-22T11:55:31;10.65;;;9.73;;
32106;SDS011;18622;51.998;10.440;2023-06-22T11:57:59;10.17;;;9.20;;
32106;SDS011;18622;51.998;10.440;2023-06-22T12:00:28;11.15;;;10.03;;
32106;SDS011;18622;51.998;10.440;2023-06-22T12:05:23;10.95;;;10.05;;
32106;SDS011;18622;51.998;10.440;2023-06-22T12:07:52;15.33;;;9.93;;
32106;SDS011;18622;51.998;10.440;2023-06-22T12:10:21;12.28;;;11.18;;
32106;SDS011;18622;51.998;10.440;2023-06-22T12:12:50;10.95;;;10.05;;
32106;SDS011;18622;51.998;10.440;2023-06-22T12:15:18;11.65;;;10.55;;
32106;SDS011;18622;51.998;10.440;2023-06-22T12:17:46;11.40;;;10.30;;
32106;SDS011;18622;51.998;10.440;2023-06-22T12:20:14;11.33;;;10.32;;
32106;SDS011;18622;51.998;10.440;2023-06-22T12:22:42;11.35;;;10.20;;
32106;SDS011;18622;51.998;10.440;2023-06-22T12:25:10;11.25;;;10.35;;
32106;SDS011;18622;51.998;10.440;2023-06-22T12:27:38;11.22;;;10.38;;
32106;SDS011;18622;51.998;10.440;2023-06-22T12:30:06;12.00;;;11.00;;
32106;SDS011;18622;51.998;10.440;2023-06-22T12:32:35;11.80;;;10.78;;
32106;SDS011;18622;51.998;10.440;2023-06-22T12:35:03;12.37;;;11.40;;
32106;SDS011;18622;51.998;10.440;2023-06-22T12:37:31;14.45;;;11.43;;
32106;SDS011;18622;51.998;10.440;2023-06-22T12:39:59;11.18;;;10.32;;
32106;SDS011;18622;51.998;10.440;2023-06-22T12:42:27;10.28;;;9.43;;
32106;SDS011;18622;51.998;10.440;2023-06-22T12:44:55;11.57;;;10.23;;
32106;SDS011;18622;51.998;10.440;2023-06-22T12:47:22;10.43;;;9.63;;
32106;SDS011;18622;51.998;10.440;2023-06-22T12:49:50;10.50;;;9.70;;
32106;SDS011;18622;51.998;10.440;2023-06-22T12:52:18;10.18;;;9.38;;
32106;SDS011;18622;51.998;10.440;2023-06-22T12:54:46;10.55;;;9.65;;
32106;SDS011;18622;51.998;10.440;2023-06-22T12:57:14;10.30;;;9.40;;
32106;SDS011;18622;51.998;10.440;2023-06-22T12:59:43;10.70;;;9.90;;
32106;SDS011;18622;51.998;10.440;2023-06-22T13:02:11;9.70;;;9.00;;
32106;SDS011;18622;51.998;10.440;2023-06-22T13:04:39;10.93;;;10.00;;
32106;SDS011;18622;51.998;10.440;2023-06-22T13:07:09;13.30;;;9.58;;
32106;SDS011;18622;51.998;10.440;2023-06-22T13:09:37;13.13;;;9.70;;
32106;SDS011;18622;51.998;10.440;2023-06-22T13:12:04;10.82;;;9.93;;
32106;SDS011;18622;51.998;10.440;2023-06-22T13:14:33;11.38;;;10.40;;
32106;SDS011;18622;51.998;10.440;2023-06-22T13:17:00;11.57;;;10.68;;
32106;SDS011;18622;51.998;10.440;2023-06-22T13:19:28;11.03;;;10.20;;
32106;SDS011;18622;51.998;10.440;2023-06-22T13:21:58;11.28;;;10.28;;
32106;SDS011;18622;51.998;10.440;2023-06-22T13:24:26;11.43;;;10.50;;
32106;SDS011;18622;51.998;10.440;2023-06-22T13:26:54;11.68;;;10.70;;
32106;SDS011;18622;51.998;10.440;2023-06-22T13:29:21;12.28;;;11.10;;
32106;SDS011;18622;51.998;10.440;2023-06-22T13:31:49;12.63;;;11.68;;
32106;SDS011;18622;51.998;10.440;2023-06-22T13:34:17;12.63;;;10.78;;
32106;SDS011;18622;51.998;10.440;2023-06-22T13:36:45;11.53;;;10.72;;
32106;SDS011;18622;51.998;10.440;2023-06-22T13:39:13;11.68;;;10.63;;
32106;SDS011;18622;51.998;10.440;2023-06-22T13:41:40;11.25;;;10.13;;
32106;SDS011;18622;51.998;10.440;2023-06-22T13:44:09;11.57;;;10.53;;
32106;SDS011;18622;51.998;10.440;2023-06-22T13:46:37;11.87;;;10.87;;
32106;SDS011;18622;51.998;10.440;2023-06-22T13:49:04;10.87;;;9.67;;
32106;SDS011;18622;51.998;10.440;2023-06-22T13:51:32;12.67;;;9.70;;
32106;SDS011;18622;51.998;10.440;2023-06-22T13:53:59;10.43;;;8.53;;
32106;SDS011;18622;51.998;10.440;2023-06-22T13:56:27;9.60;;;8.87;;
32106;SDS011;18622;51.998;10.440;2023-06-22T13:58:55;8.97;;;8.17;;
32106;SDS011;18622;51.998;10.440;2023-06-22T14:01:22;9.03;;;8.30;;
32106;SDS011;18622;51.998;10.440;2023-06-22T14:03:50;13.68;;;9.50;;
32106;SDS011;18622;51.998;10.440;2023-06-22T14:06:18;12.90;;;9.03;;
32106;SDS011;18622;51.998;10.440;2023-06-22T14:08:45;9.88;;;9.08;;
32106;SDS011;18622;51.998;10.440;2023-06-22T14:11:13;9.18;;;8.33;;
32106;SDS011;18622;51.998;10.440;2023-06-22T14:13:40;9.08;;;7.72;;
32106;SDS011;18622;51.998;10.440;2023-06-22T14:16:09;8.95;;;8.15;;
32106;SDS011;18622;51.998;10.440;2023-06-22T14:18:36;9.30;;;8.50;;
32106;SDS011;18622;51.998;10.440;2023-06-22T14:21:04;9.50;;;8.58;;
32106;SDS011;18622;51.998;10.440;2023-06-22T14:23:31;9.18;;;8.28;;
32106;SDS011;18622;51.998;10.440;2023-06-22T14:25:59;9.73;;;8.83;;
32106;SDS011;18622;51.998;10.440;2023-06-22T14:28:27;12.00;;;9.00;;
32106;SDS011;18622;51.998;10.440;2023-06-22T14:30:55;9.60;;;8.90;;
32106;SDS011;18622;51.998;10.440;2023-06-22T14:33:22;10.70;;;8.97;;
32106;SDS011;18622;51.998;10.440;2023-06-22T14:35:50;11.20;;;8.97;;
32106;SDS011;18622;51.998;10.440;2023-06-22T14:38:18;10.37;;;9.43;;
32106;SDS011;18622;51.998;10.440;2023-06-22T14:43:13;10.58;;;8.80;;
32106;SDS011;18622;51.998;10.440;2023-06-22T14:45:41;9.57;;;8.77;;
32106;SDS011;18622;51.998;10.440;2023-06-22T14:48:09;9.50;;;8.63;;
32106;SDS011;18622;51.998;10.440;2023-06-22T14:50:37;10.20;;;9.20;;
32106;SDS011;18622;51.998;10.440;2023-06-22T14:53:04;11.50;;;9.28;;
32106;SDS011;18622;51.998;10.440;2023-06-22T14:55:32;10.45;;;9.45;;
32106;SDS011;18622;51.998;10.440;2023-06-22T14:57:59;12.30;;;9.37;;
32106;SDS011;18622;51.998;10.440;2023-06-22T15:00:27;11.78;;;9.03;;
32106;SDS011;18622;51.998;10.440;2023-06-22T15:02:55;12.53;;;9.17;;
32106;SDS011;18622;51.998;10.440;2023-06-22T15:05:23;8.70;;;7.87;;
32106;SDS011;18622;51.998;10.440;2023-06-22T15:07:50;8.73;;;7.83;;
32106;SDS011;18622;51.998;10.440;2023-06-22T15:10:18;9.43;;;8.40;;
32106;SDS011;18622;51.998;10.440;2023-06-22T15:12:46;9.70;;;8.93;;
32106;SDS011;18622;51.998;10.440;2023-06-22T15:15:14;9.00;;;8.10;;
32106;SDS011;18622;51.998;10.440;2023-06-22T15:17:41;9.77;;;8.97;;
32106;SDS011;18622;51.998;10.440;2023-06-22T15:20:09;9.50;;;8.50;;
32106;SDS011;18622;51.998;10.440;2023-06-22T15:22:37;9.63;;;8.20;;
32106;SDS011;18622;51.998;10.440;2023-06-22T15:25:05;9.00;;;8.13;;
32106;SDS011;18622;51.998;10.440;2023-06-22T15:27:33;10.07;;;9.07;;
32106;SDS011;18622;51.998;10.440;2023-06-22T15:30:01;10.03;;;9.03;;
32106;SDS011;18622;51.998;10.440;2023-06-22T15:32:30;13.98;;;8.63;;
32106;SDS011;18622;51.998;10.440;2023-06-22T15:34:57;12.67;;;8.53;;
32106;SDS011;18622;51.998;10.440;2023-06-22T15:37:25;9.87;;;8.87;;
32106;SDS011;18622;51.998;10.440;2023-06-22T15:39:53;10.50;;;9.40;;
32106;SDS011;18622;51.998;10.440;2023-06-22T15:42:21;11.95;;;9.50;;
32106;SDS011;18622;51.998;10.440;2023-06-22T15:44:49;10.37;;;9.47;;
32106;SDS011;18622;51.998;10.440;2023-06-22T15:47:17;10.90;;;9.10;;
32106;SDS011;18622;51.998;10.440;2023-06-22T15:49:47;10.40;;;9.43;;
32106;SDS011;18622;51.998;10.440;2023-06-22T15:52:17;10.47;;;9.33;;
32106;SDS011;18622;51.998;10.440;2023-06-22T15:54:45;11.18;;;9.15;;
32106;SDS011;18622;51.998;10.440;2023-06-22T15:57:13;11.17;;;9.90;;
32106;SDS011;18622;51.998;10.440;2023-06-22T15:59:41;10.77;;;9.77;;
32106;SDS011;18622;51.998;10.440;2023-06-22T16:02:09;11.10;;;9.85;;
32106;SDS011;18622;51.998;10.440;2023-06-22T16:04:37;12.33;;;10.20;;
32106;SDS011;18622;51.998;10.440;2023-06-22T16:07:04;10.63;;;9.63;;
32106;SDS011;18622;51.998;10.440;2023-06-22T16:09:32;11.53;;;10.53;;
32106;SDS011;18622;51.998;10.440;2023-06-22T16:12:00;12.10;;;10.90;;
32106;SDS011;18622;51.998;10.440;2023-06-22T16:14:28;19.53;;;12.03;;
32106;SDS011;18622;51.998;10.440;2023-06-22T16:16:56;24.90;;;11.53;;
32106;SDS011;18622;51.998;10.440;2023-06-22T16:19:24;14.53;;;11.70;;
32106;SDS011;18622;51.998;10.440;2023-06-22T16:21:52;12.17;;;10.83;;
32106;SDS011;18622;51.998;10.440;2023-06-22T16:24:20;13.57;;;12.20;;
32106;SDS011;18622;51.998;10.440;2023-06-22T16:26:48;11.70;;;9.97;;
32106;SDS011;18622;51.998;10.440;2023-06-22T16:29:16;12.63;;;8.20;;
32106;SDS011;18622;51.998;10.440;2023-06-22T16:31:44;25.73;;;6.33;;
32106;SDS011;18622;51.998;10.440;2023-06-22T16:34:12;33.27;;;6.57;;
32106;SDS011;18622;51.998;10.440;2023-06-22T16:36:40;14.18;;;4.80;;
32106;SDS011;18622;51.998;10.440;2023-06-22T16:39:08;15.30;;;4.30;;
32106;SDS011;18622;51.998;10.440;2023-06-22T16:41:36;15.90;;;3.90;;
32106;SDS011;18622;51.998;10.440;2023-06-22T16:44:04;13.80;;;4.60;;
32106;SDS011;18622;51.998;10.440;2023-06-22T16:46:33;21.48;;;4.10;;
32106;SDS011;18622;51.998;10.440;2023-06-22T16:49:00;13.22;;;3.90;;
32106;SDS011;18622;51.998;10.440;2023-06-22T16:51:31;8.70;;;2.80;;
32106;SDS011;18622;51.998;10.440;2023-06-22T16:53:58;15.08;;;3.92;;
32106;SDS011;18622;51.998;10.440;2023-06-22T16:56:26;32.43;;;5.70;;
32106;SDS011;18622;51.998;10.440;2023-06-22T16:58:55;26.00;;;4.85;;
32106;SDS011;18622;51.998;10.440;2023-06-22T17:01:24;9.60;;;2.92;;
32106;SDS011;18622;51.998;10.440;2023-06-22T17:04:03;6.77;;;2.10;;
32106;SDS011;18622;51.998;10.440;2023-06-22T17:06:29;9.87;;;2.63;;
32106;SDS011;18622;51.998;10.440;2023-06-22T17:08:59;13.30;;;3.05;;
32106;SDS011;18622;51.998;10.440;2023-06-22T17:11:29;8.50;;;2.70;;
32106;SDS011;18622;51.998;10.440;2023-06-22T17:14:00;9.53;;;2.70;;
32106;SDS011;18622;51.998;10.440;2023-06-22T17:16:29;9.10;;;2.67;;
32106;SDS011;18622;51.998;10.440;2023-06-22T17:18:59;8.13;;;2.70;;
32106;SDS011;18622;51.998;10.440;2023-06-22T17:21:30;11.28;;;3.00;;
32106;SDS011;18622;51.998;10.440;2023-06-22T17:26:34;9.28;;;3.72;;
32106;SDS011;18622;51.998;10.440;2023-06-22T17:28:59;19.50;;;4.03;;
32106;SDS011;18622;51.998;10.440;2023-06-22T17:31:38;7.45;;;3.40;;
32106;SDS011;18622;51.998;10.440;2023-06-22T17:34:13;20.23;;;4.67;;
32106;SDS011;18622;51.998;10.440;2023-06-22T17:36:42;15.20;;;4.30;;
32106;SDS011;18622;51.998;10.440;2023-06-22T17:39:17;20.32;;;6.17;;
32106;SDS011;18622;51.998;10.440;2023-06-22T17:41:42;13.32;;;4.35;;
32106;SDS011;18622;51.998;10.440;2023-06-22T17:44:12;11.53;;;4.60;;
32106;SDS011;18622;51.998;10.440;2023-06-22T17:46:41;9.03;;;4.87;;
32106;SDS011;18622;51.998;10.440;2023-06-22T17:49:10;15.03;;;5.10;;
32106;SDS011;18622;51.998;10.440;2023-06-22T17:51:43;10.90;;;4.67;;
32106;SDS011;18622;51.998;10.440;2023-06-22T17:54:11;29.67;;;7.30;;
32106;SDS011;18622;51.998;10.440;2023-06-22T17:56:39;16.27;;;5.13;;
32106;SDS011;18622;51.998;10.440;2023-06-22T17:59:07;19.47;;;5.03;;
32106;SDS011;18622;51.998;10.440;2023-06-22T18:01:37;10.37;;;4.33;;
32106;SDS011;18622;51.998;10.440;2023-06-22T18:04:05;17.00;;;6.00;;
32106;SDS011;18622;51.998;10.440;2023-06-22T18:06:36;18.30;;;5.23;;
32106;SDS011;18622;51.998;10.440;2023-06-22T18:09:06;12.63;;;4.35;;